Time;durP1;ratioP1;P1;durP2;ratioP2;P2;SDS_P1;SDS_P2;PMS_P1;PMS_P2;Temp;Humidity;BMP_temperature;BMP_pressure;BME280_temperature;BME280_humidity;BME280_pressure;Samples;Min_cycle;Max_cycle;Signal;HPM_P1;HPM_P2
2023/01/01 08:31:15;;;;;;;10.45;3.35;;;;;;;11.55;71.21;97055.44;2107377;27;20921;-66
2023/01/01 08:32:17;;;;;;;9.18;3.10;;;;;;;12.18;69.69;97066.75;2106523;28;20203;-65
2023/01/01 08:33:18;;;;;;;6.75;2.92;;;;;;;12.33;69.02;97067.81;2106528;28;20202;-62
2023/01/01 08:34:20;;;;;;;8.13;2.65;;;;;;;12.87;67.23;97073.22;2107033;28;20221;-62
2023/01/01 08:35:21;;;;;;;5.85;2.40;;;;;;;13.32;66.04;97065.81;2107740;28;20206;-63
2023/01/01 08:36:23;;;;;;;6.93;2.78;;;;;;;13.84;65.57;97067.66;2105481;28;20215;-62
2023/01/01 08:37:24;;;;;;;4.70;2.47;;;;;;;14.08;63.62;97064.69;2106213;28;20558;-63
2023/01/01 08:38:26;;;;;;;5.05;2.50;;;;;;;14.27;63.75;97073.31;2104403;28;20199;-63
2023/01/01 08:39:27;;;;;;;13.05;2.65;;;;;;;14.72;61.94;97070.97;2103754;28;20202;-63
2023/01/01 08:40:29;;;;;;;9.80;2.55;;;;;;;15.35;59.67;97064.81;2103109;28;20195;-63
2023/01/01 08:41:30;;;;;;;7.80;3.03;;;;;;;15.51;58.94;97072.69;2106424;28;20237;-63
2023/01/01 08:42:32;;;;;;;5.40;2.50;;;;;;;15.68;58.23;97068.22;2107911;28;20321;-63
2023/01/01 08:43:33;;;;;;;6.85;3.30;;;;;;;15.74;58.23;97054.66;2107297;28;20206;-63
2023/01/01 08:44:34;;;;;;;5.53;2.85;;;;;;;15.89;57.33;97073.19;2106759;28;20700;-63
2023/01/01 08:45:36;;;;;;;6.65;2.65;;;;;;;15.72;58.04;97072.34;2106757;28;20194;-63
2023/01/01 08:46:37;;;;;;;6.97;2.78;;;;;;;15.13;59.19;97065.16;2105637;28;20199;-62
2023/01/01 08:47:39;;;;;;;6.80;2.50;;;;;;;15.37;58.73;97066.50;2106078;28;20192;-62
2023/01/01 08:48:41;;;;;;;4.43;2.22;;;;;;;14.70;60.25;97067.56;2105683;28;20221;-63
2023/01/01 08:49:42;;;;;;;6.28;2.63;;;;;;;15.28;59.57;97070.50;2106937;28;20198;-63
2023/01/01 08:50:44;;;;;;;9.35;3.20;;;;;;;15.41;58.65;97074.13;2103240;28;20245;-61
2023/01/01 08:51:45;;;;;;;9.48;3.22;;;;;;;14.93;59.76;97076.81;2106785;28;20378;-63
2023/01/01 08:52:47;;;;;;;6.65;3.03;;;;;;;14.78;60.24;97070.63;2107085;28;20198;-63
2023/01/01 08:53:48;;;;;;;8.02;2.80;;;;;;;15.02;59.63;97071.03;2106894;28;20638;-63
2023/01/01 08:54:52;;;;;;;8.68;2.80;;;;;;;15.28;59.07;97075.78;2106817;28;20532;-64
2023/01/01 08:56:02;;;;;;;8.30;2.20;;;;;;;15.17;58.91;97061.44;2107802;28;20222;-64
2023/01/01 08:57:04;;;;;;;4.43;2.60;;;;;;;15.35;58.45;97062.19;2106403;28;20240;-65
2023/01/01 08:58:06;;;;;;;8.98;2.80;;;;;;;15.22;58.90;97068.22;2106411;28;20273;-62
2023/01/01 08:59:07;;;;;;;5.30;2.47;;;;;;;15.07;59.34;97060.28;2107747;28;20229;-63
2023/01/01 09:00:12;;;;;;;5.95;2.55;;;;;;;15.11;58.61;97045.16;2107133;28;20191;-63
2023/01/01 09:01:15;;;;;;;4.65;2.33;;;;;;;16.02;57.44;97068.03;2107007;28;20299;-63
2023/01/01 09:02:16;;;;;;;4.30;2.17;;;;;;;16.01;56.73;97061.91;2106644;28;20630;-63
2023/01/01 09:03:19;;;;;;;5.13;2.45;;;;;;;16.26;55.87;97063.06;2105265;28;20548;-62
2023/01/01 09:04:21;;;;;;;5.75;2.58;;;;;;;15.52;57.87;97066.47;2107103;28;20369;-63
2023/01/01 09:05:22;;;;;;;4.43;1.98;;;;;;;15.09;57.91;97055.75;2107480;28;20195;-63
2023/01/01 09:06:24;;;;;;;5.78;3.15;;;;;;;15.21;58.94;97050.75;2102770;28;20258;-62
2023/01/01 09:07:25;;;;;;;6.65;2.20;;;;;;;14.82;59.66;97061.63;2104877;28;20195;-63
2023/01/01 09:08:27;;;;;;;3.70;2.22;;;;;;;14.01;61.20;97051.03;2107618;28;20234;-62
2023/01/01 09:09:28;;;;;;;7.15;2.22;;;;;;;13.83;62.29;97053.69;2106759;28;20263;-62
2023/01/01 09:10:32;;;;;;;5.60;2.50;;;;;;;13.49;63.11;97055.38;2104937;28;20202;-62
2023/01/01 09:11:33;;;;;;;9.55;2.45;;;;;;;13.59;63.22;97062.81;2108537;28;20190;-62
2023/01/01 09:12:35;;;;;;;8.27;2.35;;;;;;;13.52;63.51;97062.25;2105359;28;20662;-62
2023/01/01 09:13:36;;;;;;;7.10;2.45;;;;;;;13.49;63.29;97060.63;2106757;28;20752;-62
2023/01/01 09:14:38;;;;;;;8.48;2.00;;;;;;;13.58;63.14;97069.00;2105360;28;20739;-63
2023/01/01 09:15:41;;;;;;;6.80;2.30;;;;;;;13.47;63.27;97061.63;2107399;28;20212;-62
2023/01/01 09:16:43;;;;;;;5.82;2.83;;;;;;;13.45;63.46;97059.09;2107718;28;20199;-62
2023/01/01 09:17:44;;;;;;;9.88;2.72;;;;;;;13.39;63.69;97056.78;2106507;28;20194;-63
2023/01/01 09:18:46;;;;;;;5.57;2.50;;;;;;;13.16;64.54;97055.25;2106385;28;20196;-62
2023/01/01 09:19:47;;;;;;;8.65;2.80;;;;;;;13.26;63.96;97061.75;2107147;28;20646;-62
2023/01/01 09:20:49;;;;;;;5.85;2.70;;;;;;;13.16;64.46;97055.25;2102586;28;20268;-62
2023/01/01 09:21:51;;;;;;;8.18;2.80;;;;;;;13.31;63.87;97057.13;2104492;28;20199;-64
2023/01/01 09:22:52;;;;;;;16.70;8.27;;;;;;;13.55;63.23;97057.72;2106312;28;20222;-64
2023/01/01 09:23:54;;;;;;;15.27;5.57;;;;;;;13.82;62.56;97051.16;2106937;28;20231;-62
2023/01/01 09:24:55;;;;;;;11.18;6.35;;;;;;;13.91;62.30;97057.72;2100788;28;20776;-62
2023/01/01 09:26:04;;;;;;;6.57;2.58;;;;;;;13.74;62.70;97067.28;2099733;28;20284;-63
2023/01/01 09:27:05;;;;;;;10.85;2.45;;;;;;;14.36;61.44;97062.31;2105929;28;20294;-63
2023/01/01 09:28:11;;;;;;;5.03;2.05;;;;;;;14.34;60.82;97051.03;2102784;28;20195;-63
2023/01/01 09:29:17;;;;;;;4.25;2.05;;;;;;;14.25;61.36;97054.16;2105207;28;20191;-63
2023/01/01 09:30:18;;;;;;;9.70;2.85;;;;;;;14.62;60.82;97064.47;2106587;28;20239;-63
2023/01/01 09:31:20;;;;;;;6.90;2.03;;;;;;;14.40;60.70;97076.16;2104765;28;20317;-63
2023/01/01 09:32:22;;;;;;;6.50;2.70;;;;;;;14.63;60.76;97069.66;2106257;28;20301;-63
2023/01/01 09:33:24;;;;;;;5.30;2.80;;;;;;;14.74;60.33;97071.72;2104113;28;20201;-63
2023/01/01 09:34:26;;;;;;;9.05;2.42;;;;;;;15.04;59.52;97070.94;2107712;28;20340;-64
2023/01/01 09:35:28;;;;;;;8.20;3.72;;;;;;;15.59;58.56;97076.63;2105955;28;20588;-63
2023/01/01 09:36:32;;;;;;;5.38;2.30;;;;;;;16.22;56.80;97083.47;2102565;28;20191;-63
2023/01/01 09:37:33;;;;;;;3.15;1.88;;;;;;;16.50;56.05;97076.50;2106336;28;20248;-63
2023/01/01 09:38:35;;;;;;;6.13;2.80;;;;;;;16.54;55.65;97067.47;2105863;28;20199;-63
2023/01/01 09:39:36;;;;;;;7.70;2.40;;;;;;;16.93;55.04;97081.75;2109681;28;20282;-63
2023/01/01 09:40:59;;;;;;;19.75;2.75;;;;;;;16.30;56.43;97068.06;2105877;28;20206;-63
2023/01/01 09:42:21;;;;;;;5.95;2.00;;;;;;;17.00;55.35;97089.28;2104732;28;20254;-63
2023/01/01 09:43:23;;;;;;;6.93;2.25;;;;;;;17.93;52.63;97077.06;2101414;28;20188;-63
2023/01/01 09:44:45;;;;;;;5.75;2.50;;;;;;;17.78;53.28;97092.09;2099782;28;20219;-63
2023/01/01 09:46:00;;;;;;;5.28;3.00;;;;;;;17.68;53.36;97084.91;2100761;28;20196;-63
2023/01/01 09:47:04;;;;;;;7.40;2.67;;;;;;;18.30;52.04;97078.97;2100900;28;20215;-63
2023/01/01 09:48:12;;;;;;;6.20;2.80;;;;;;;18.54;51.13;97083.53;2101293;28;20203;-63
2023/01/01 09:49:28;;;;;;;4.68;2.42;;;;;;;18.35;51.35;97084.78;2101106;28;20230;-63
2023/01/01 09:50:44;;;;;;;6.30;3.30;;;;;;;18.44;51.00;97076.22;2097929;28;20721;-63
2023/01/01 09:51:53;;;;;;;9.52;3.00;;;;;;;18.41;51.42;97092.31;2100796;28;20211;-63
2023/01/01 09:53:03;;;;;;;6.22;3.03;;;;;;;18.74;50.54;97092.66;2093430;28;21032;-63
2023/01/01 09:54:36;;;;;;;10.60;2.95;;;;;;;18.53;50.91;97090.59;2095653;28;20195;-63
2023/01/01 09:56:01;;;;;;;11.93;3.13;;;;;;;18.53;51.19;97093.25;2100134;28;20222;-63
2023/01/01 09:57:07;;;;;;;9.60;3.00;;;;;;;19.42;49.30;97090.50;2101825;28;20230;-63
2023/01/01 09:58:14;;;;;;;5.82;3.30;;;;;;;19.20;49.87;97096.53;2100753;28;20971;-63
2023/01/01 09:59:15;;;;;;;4.40;2.78;;;;;;;18.79;50.68;97092.34;2088441;28;20670;-63
2023/01/01 10:00:18;;;;;;;5.22;2.50;;;;;;;18.21;51.63;97087.56;2088652;28;20219;-64
2023/01/01 10:01:43;;;;;;;9.82;3.15;;;;;;;17.75;52.67;97094.97;2099265;28;20302;-63
2023/01/01 10:03:05;;;;;;;10.10;2.95;;;;;;;17.37;53.44;97093.06;2100259;28;20198;-63
2023/01/01 10:04:31;;;;;;;9.13;3.33;;;;;;;17.10;54.79;97098.31;2101495;28;20202;-63
2023/01/01 10:05:44;;;;;;;6.57;3.03;;;;;;;17.25;54.71;97088.56;2093175;28;20192;-63
2023/01/01 10:07:24;;;;;;;8.98;3.05;;;;;;;17.48;53.89;97083.59;2094821;28;20203;-63
2023/01/01 10:08:39;;;;;;;5.97;2.75;;;;;;;17.47;54.39;97085.34;2100149;28;20877;-63
2023/01/01 10:09:53;;;;;;;9.20;2.97;;;;;;;17.60;53.70;97078.34;2101001;28;20214;-63
2023/01/01 10:11:13;;;;;;;7.68;3.47;;;;;;;17.89;53.04;97087.88;2100333;28;20851;-63
2023/01/01 10:12:53;;;;;;;3.85;2.50;;;;;;;18.44;52.10;97076.22;2101465;28;20191;-63
2023/01/01 10:13:58;;;;;;;12.43;3.08;;;;;;;18.14;52.76;97083.63;2098373;28;20695;-63
2023/01/01 10:15:14;;;;;;;6.75;3.47;;;;;;;17.43;53.98;97084.75;2101395;28;20190;-63
2023/01/01 10:16:23;;;;;;;8.23;2.88;;;;;;;18.54;51.66;97092.28;2100403;28;20233;-63
2023/01/01 10:17:38;;;;;;;5.30;2.92;;;;;;;17.95;52.89;97088.38;2100718;28;20199;-63
2023/01/01 10:18:41;;;;;;;10.38;3.42;;;;;;;17.43;53.94;97084.75;2094530;28;20191;-63
2023/01/01 10:19:49;;;;;;;7.38;3.85;;;;;;;17.77;53.67;97092.22;2092933;28;20687;-63
2023/01/01 10:21:06;;;;;;;8.02;3.28;;;;;;;18.23;52.45;97073.28;2097818;28;20218;-63
2023/01/01 10:22:13;;;;;;;9.25;3.22;;;;;;;18.49;51.80;97093.56;2099620;28;20192;-63
2023/01/01 10:23:18;;;;;;;5.78;3.20;;;;;;;18.51;51.69;97086.38;2100650;28;20198;-63
2023/01/01 10:24:34;;;;;;;8.30;3.25;;;;;;;19.20;50.90;97083.28;2101906;28;20199;-63
2023/01/01 10:25:39;;;;;;;5.00;3.20;;;;;;;17.85;52.26;97084.63;2101653;28;20234;-63
2023/01/01 10:26:40;;;;;;;7.82;4.10;;;;;;;17.59;53.69;97084.56;2099284;28;20215;-63
2023/01/01 10:27:58;;;;;;;12.52;5.28;;;;;;;17.59;54.17;97073.16;2100339;28;20244;-63
2023/01/01 10:29:07;;;;;;;6.97;3.38;;;;;;;17.65;54.02;97083.31;2100365;28;20200;-63
2023/01/01 10:30:16;;;;;;;11.10;3.60;;;;;;;17.90;53.35;97081.66;2091174;28;20200;-65
2023/01/01 10:31:28;;;;;;;9.40;3.53;;;;;;;17.89;53.21;97083.47;2093464;28;20223;-65
2023/01/01 10:32:32;;;;;;;10.38;5.22;;;;;;;17.43;53.87;97073.31;2092290;28;20210;-65
2023/01/01 10:33:33;;;;;;;9.68;4.28;;;;;;;16.94;55.48;97080.00;2093662;28;20208;-62
2023/01/01 10:34:35;;;;;;;5.40;3.30;;;;;;;16.88;55.54;97080.34;2101545;28;20222;-64
2023/01/01 10:35:47;;;;;;;9.98;3.83;;;;;;;17.55;54.47;97079.59;2099353;28;20206;-62
2023/01/01 10:36:52;;;;;;;10.50;3.72;;;;;;;17.39;54.58;97077.94;2102001;28;20202;-63
2023/01/01 10:37:54;;;;;;;9.27;4.32;;;;;;;17.64;54.22;97073.69;2100660;28;20200;-62
2023/01/01 10:38:55;;;;;;;7.28;3.50;;;;;;;17.61;53.61;97074.75;2101016;28;20195;-63
2023/01/01 10:39:57;;;;;;;5.57;3.33;;;;;;;17.53;54.35;97071.75;2100179;28;20526;-63
2023/01/01 10:41:04;;;;;;;7.40;3.15;;;;;;;17.70;54.47;97078.56;2100246;28;20219;-62
2023/01/01 10:42:06;;;;;;;9.20;3.50;;;;;;;17.79;53.76;97062.09;2100441;28;20565;-62
2023/01/01 10:43:10;;;;;;;6.15;3.20;;;;;;;18.30;52.55;97073.69;2093124;28;20820;-63
2023/01/01 10:44:14;;;;;;;8.38;3.83;;;;;;;18.85;51.51;97063.66;2094415;28;20409;-63
2023/01/01 10:45:47;;;;;;;9.45;3.15;;;;;;;19.05;50.29;97066.72;2100038;28;20653;-63
2023/01/01 10:46:55;;;;;;;7.63;3.50;;;;;;;19.28;50.75;97067.69;2100001;28;20224;-62
2023/01/01 10:48:26;;;;;;;7.70;2.90;;;;;;;18.08;52.44;97063.75;2096810;28;20287;-62
2023/01/01 10:49:27;;;;;;;7.22;3.00;;;;;;;18.30;52.21;97072.84;2100976;28;20198;-63
2023/01/01 10:50:44;;;;;;;5.95;2.72;;;;;;;18.53;51.96;97069.44;2096275;28;20850;-63
2023/01/01 10:51:48;;;;;;;4.57;2.63;;;;;;;19.09;50.77;97076.13;2100697;28;20191;-62
2023/01/01 10:52:55;;;;;;;9.68;3.28;;;;;;;18.55;51.27;97064.03;2098842;28;20192;-62
2023/01/01 10:53:57;;;;;;;7.30;2.95;;;;;;;18.72;51.68;97071.63;2099186;28;20200;-63
2023/01/01 10:54:59;;;;;;;6.32;3.30;;;;;;;18.73;51.69;97070.69;2096725;28;20642;-62
2023/01/01 10:56:04;;;;;;;5.20;3.03;;;;;;;18.91;51.36;97078.28;2099793;28;20634;-63
2023/01/01 10:57:28;;;;;;;15.15;3.08;;;;;;;19.24;50.13;97069.69;2102223;28;20203;-63
2023/01/01 10:58:40;;;;;;;9.27;3.38;;;;;;;18.93;50.60;97071.94;2099239;28;20191;-62
2023/01/01 10:59:42;;;;;;;13.38;2.80;;;;;;;18.74;51.60;97074.16;2100431;28;20672;-62
2023/01/01 11:00:58;;;;;;;5.05;2.60;;;;;;;18.03;52.51;97072.00;2099931;28;20222;-62
2023/01/01 11:02:30;;;;;;;10.73;3.85;;;;;;;18.52;51.49;97072.19;2099565;28;20203;-64
2023/01/01 11:03:32;;;;;;;8.85;4.10;;;;;;;18.85;51.02;97065.47;2098768;28;20199;-64
2023/01/01 11:04:34;;;;;;;5.38;2.90;;;;;;;18.97;50.68;97066.41;2100485;28;20235;-61
2023/01/01 11:05:35;;;;;;;9.60;2.65;;;;;;;19.14;50.44;97066.03;2097474;28;20341;-63
2023/01/01 11:06:42;;;;;;;10.20;3.65;;;;;;;19.03;50.62;97066.84;2099821;28;20232;-63
2023/01/01 11:07:43;;;;;;;8.13;2.70;;;;;;;19.13;49.26;97067.00;2100898;28;20192;-63
2023/01/01 11:08:48;;;;;;;7.00;2.80;;;;;;;20.11;48.31;97054.50;2096747;28;20217;-63
2023/01/01 11:09:50;;;;;;;6.57;2.80;;;;;;;20.03;48.02;97065.69;2091625;28;20200;-63
2023/01/01 11:11:04;;;;;;;13.55;3.45;;;;;;;19.36;48.93;97056.53;2084486;28;20303;-63
2023/01/01 11:12:15;;;;;;;6.03;2.35;;;;;;;19.99;47.56;97065.06;2094017;28;20200;-63
2023/01/01 11:13:39;;;;;;;5.65;3.13;;;;;;;19.86;47.92;97062.53;2095239;28;20204;-63
2023/01/01 11:14:49;;;;;;;6.15;2.38;;;;;;;19.80;47.59;97072.72;2098072;28;20278;-63
2023/01/01 11:15:51;;;;;;;8.43;2.10;;;;;;;19.62;47.37;97061.66;2101626;28;20222;-64
2023/01/01 11:16:54;;;;;;;11.20;2.42;;;;;;;20.05;47.38;97061.13;2091863;28;20231;-62
2023/01/01 11:18:11;;;;;;;10.63;2.25;;;;;;;20.28;46.74;97064.66;2094780;28;20673;-64
2023/01/01 11:19:36;;;;;;;7.95;2.47;;;;;;;20.43;46.27;97064.41;2099974;28;20198;-64
2023/01/01 11:20:39;;;;;;;7.18;2.30;;;;;;;20.47;45.95;97049.97;2095316;28;20224;-63
2023/01/01 11:21:45;;;;;;;16.15;6.57;;;;;;;20.91;46.16;97058.03;2098056;28;20234;-66
2023/01/01 11:22:50;;;;;;;8.35;2.88;;;;;;;21.13;45.40;97060.66;2099828;28;20670;-64
2023/01/01 11:24:15;;;;;;;6.80;2.35;;;;;;;20.51;45.92;97059.38;2099402;28;20206;-64
2023/01/01 11:25:25;;;;;;;7.13;3.60;;;;;;;19.63;47.75;97047.47;2100242;28;20192;-64
2023/01/01 11:26:27;;;;;;;11.27;3.17;;;;;;;19.85;47.30;97050.22;2098628;28;20289;-64
2023/01/01 11:27:28;;;;;;;9.23;2.45;;;;;;;20.01;47.62;97043.75;2100017;28;20203;-64
2023/01/01 11:28:33;;;;;;;10.57;2.00;;;;;;;19.84;47.70;97045.88;2096767;28;20235;-64
2023/01/01 11:29:35;;;;;;;9.95;2.85;;;;;;;19.83;47.58;97049.53;2099677;28;20807;-64
2023/01/01 11:30:37;;;;;;;8.57;2.60;;;;;;;19.31;48.96;97041.00;2100368;28;20741;-64
2023/01/01 11:31:39;;;;;;;6.40;3.38;;;;;;;19.81;48.17;97034.66;2091854;28;20199;-64
2023/01/01 11:32:41;;;;;;;5.82;2.30;;;;;;;19.37;49.17;97037.88;2092511;28;20211;-64
2023/01/01 11:33:44;;;;;;;6.60;2.60;;;;;;;19.36;48.62;97020.31;2097104;28;20199;-64
2023/01/01 11:34:59;;;;;;;7.45;2.72;;;;;;;18.78;50.33;97041.25;2096538;28;20325;-64
2023/01/01 11:36:01;;;;;;;8.15;3.08;;;;;;;18.71;51.26;97035.53;2089008;28;20219;-64
2023/01/01 11:37:19;;;;;;;6.70;2.65;;;;;;;19.08;50.42;97029.44;2091063;28;20195;-62
2023/01/01 11:38:23;;;;;;;5.80;2.75;;;;;;;19.30;49.42;97030.50;2097674;28;20651;-62
2023/01/01 11:39:31;;;;;;;7.00;2.92;;;;;;;19.26;49.82;97016.63;2097783;28;20253;-62
2023/01/01 11:40:44;;;;;;;7.88;2.80;;;;;;;19.57;48.45;97019.66;2096080;28;20203;-62
2023/01/01 11:41:48;;;;;;;8.88;2.85;;;;;;;19.66;48.92;97028.72;2098492;28;20192;-62
2023/01/01 11:42:53;;;;;;;5.90;2.50;;;;;;;20.25;47.78;97025.09;2100462;28;20616;-62
2023/01/01 11:43:59;;;;;;;4.55;2.35;;;;;;;19.70;48.86;97016.94;2098874;28;20218;-62
2023/01/01 11:45:05;;;;;;;7.35;2.70;;;;;;;20.04;47.63;97007.25;2096554;28;20204;-62
2023/01/01 11:46:10;;;;;;;6.03;2.72;;;;;;;18.98;49.41;97013.41;2099371;28;20247;-62
2023/01/01 11:47:56;;;;;;;8.00;2.58;;;;;;;18.86;49.60;97007.16;2098769;28;20534;-62
2023/01/01 11:48:58;;;;;;;11.60;3.10;;;;;;;19.03;49.95;97002.47;2081177;28;20197;-62
2023/01/01 11:50:15;;;;;;;4.93;2.50;;;;;;;18.65;50.83;97011.34;2081844;28;20478;-62
2023/01/01 11:51:30;;;;;;;7.70;3.15;;;;;;;19.24;48.64;97007.97;2080907;28;20252;-64
2023/01/01 11:52:41;;;;;;;5.70;2.58;;;;;;;19.14;49.17;97002.50;2080962;28;20211;-64
2023/01/01 11:53:42;;;;;;;7.05;2.40;;;;;;;19.36;49.38;96995.63;2081238;28;20204;-64
2023/01/01 11:54:45;;;;;;;8.07;2.38;;;;;;;19.89;48.02;96998.69;2078836;28;20240;-64
2023/01/01 11:56:07;;;;;;;6.18;2.47;;;;;;;19.40;48.17;97005.03;2078274;28;20691;-65
2023/01/01 11:57:15;;;;;;;7.15;2.67;;;;;;;19.56;48.46;96988.84;2080294;28;20201;-65
2023/01/01 11:58:34;;;;;;;7.53;2.75;;;;;;;19.53;48.77;97005.81;2079369;28;20211;-64
2023/01/01 11:59:45;;;;;;;5.18;2.20;;;;;;;19.27;48.98;97007.75;2079858;28;20287;-64
2023/01/01 12:00:53;;;;;;;12.15;2.50;;;;;;;19.32;48.86;97005.59;2081621;28;20208;-64
2023/01/01 12:01:58;;;;;;;7.43;2.63;;;;;;;19.42;48.58;96993.34;2073393;28;20198;-64
2023/01/01 12:03:10;;;;;;;4.10;2.42;;;;;;;18.98;49.70;96997.53;2073378;28;20198;-64
2023/01/01 12:04:19;;;;;;;10.63;3.25;;;;;;;19.38;49.34;96999.00;2081677;28;20192;-64
2023/01/01 12:05:33;;;;;;;5.35;3.05;;;;;;;19.18;49.47;97000.50;2080628;28;20197;-64
2023/01/01 12:06:55;;;;;;;11.88;3.00;;;;;;;19.84;48.76;97000.84;2081583;28;20231;-62
2023/01/01 12:07:59;;;;;;;11.93;2.42;;;;;;;19.69;48.44;96991.38;2081084;28;20200;-62
2023/01/01 12:09:13;;;;;;;11.43;2.70;;;;;;;19.92;48.63;96991.47;2082258;28;20189;-62
2023/01/01 12:10:26;;;;;;;6.95;2.60;;;;;;;20.15;48.36;96993.19;2079034;28;20250;-62
2023/01/01 12:11:40;;;;;;;8.07;2.60;;;;;;;19.69;48.63;96991.38;2081021;28;20224;-62
2023/01/01 12:12:47;;;;;;;3.85;2.35;;;;;;;19.29;49.15;96992.59;2082427;28;20575;-62
2023/01/01 12:14:11;;;;;;;18.63;3.97;;;;;;;19.49;49.22;96988.47;2082603;28;20200;-62
2023/01/01 12:15:30;;;;;;;8.00;2.33;;;;;;;19.91;48.20;96993.28;2077220;28;20206;-62
2023/01/01 12:16:45;;;;;;;7.72;2.83;;;;;;;19.46;49.00;96980.72;2081258;28;20248;-62
2023/01/01 12:17:56;;;;;;;6.65;2.72;;;;;;;19.14;50.01;96978.69;2083380;28;20196;-62
2023/01/01 12:19:14;;;;;;;9.07;2.85;;;;;;;18.93;50.36;96978.47;2082342;28;20663;-62
2023/01/01 12:20:26;;;;;;;15.77;2.33;;;;;;;19.07;49.95;96977.44;2086573;28;20235;-62
2023/01/01 12:21:29;;;;;;;8.07;2.65;;;;;;;18.93;50.43;96974.03;2094310;28;20737;-61
2023/01/01 12:22:31;;;;;;;7.75;4.57;;;;;;;18.50;50.71;96974.47;2095863;28;20681;-60
2023/01/01 12:23:33;;;;;;;11.48;2.65;;;;;;;18.89;50.41;96969.91;2099190;28;20195;-61
2023/01/01 12:24:35;;;;;;;7.20;2.78;;;;;;;18.96;50.05;96967.69;2100008;28;20200;-61
2023/01/01 12:25:44;;;;;;;5.43;2.35;;;;;;;19.32;49.89;96965.06;2099934;28;20218;-61
2023/01/01 12:27:22;;;;;;;8.57;2.63;;;;;;;18.58;50.28;96924.50;2100333;28;20219;-62
2023/01/01 12:28:38;;;;;;;9.32;3.67;;;;;;;19.16;49.44;96962.69;2100569;28;20206;-62
2023/01/01 12:29:52;;;;;;;18.42;3.30;;;;;;;18.58;49.99;96964.19;2099146;28;20196;-62
2023/01/01 12:31:23;;;;;;;11.25;2.30;;;;;;;18.73;50.66;96958.75;2099252;28;20733;-62
2023/01/01 12:32:55;;;;;;;10.60;2.30;;;;;;;18.72;50.36;96963.19;2098196;28;20287;-62
2023/01/01 12:34:35;;;;;;;6.43;2.80;;;;;;;18.67;50.68;96969.78;2099127;28;20336;-62
2023/01/01 12:36:03;;;;;;;7.28;2.30;;;;;;;18.67;50.17;96970.59;2102007;28;20202;-61
2023/01/01 12:37:08;;;;;;;4.97;2.35;;;;;;;18.93;49.79;96975.81;2098628;28;20227;-62
2023/01/01 12:38:28;;;;;;;9.77;2.60;;;;;;;18.44;50.19;96966.97;2098876;28;20238;-61
2023/01/01 12:39:29;;;;;;;6.07;2.78;;;;;;;18.41;51.12;96972.47;2099672;28;20206;-62
2023/01/01 12:40:38;;;;;;;6.40;2.33;;;;;;;18.85;50.17;96955.19;2100453;28;20202;-62
2023/01/01 12:41:39;;;;;;;8.07;2.80;;;;;;;19.14;49.86;96967.28;2100064;28;20241;-65
2023/01/01 12:42:56;;;;;;;7.60;2.35;;;;;;;18.84;49.90;96965.91;2099684;28;20317;-61
2023/01/01 12:44:15;;;;;;;9.05;2.13;;;;;;;18.51;50.07;96967.38;2099446;28;20534;-62
2023/01/01 12:45:28;;;;;;;8.52;2.53;;;;;;;18.90;49.93;96968.97;2090744;28;20191;-63
2023/01/01 12:47:07;;;;;;;4.68;2.20;;;;;;;18.89;50.29;96969.03;2092937;28;20930;-65
2023/01/01 12:48:40;;;;;;;8.75;2.60;;;;;;;18.74;50.20;96968.34;2084031;28;20228;-65
2023/01/01 12:50:20;;;;;;;9.48;2.00;;;;;;;18.95;49.36;96968.63;2082380;28;20200;-65
2023/01/01 12:51:36;;;;;;;6.35;2.10;;;;;;;18.81;49.49;96968.78;2082541;28;20211;-65
2023/01/01 12:52:54;;;;;;;9.05;1.95;;;;;;;18.32;50.21;96959.91;2083057;28;20204;-65
2023/01/01 12:54:27;;;;;;;6.03;2.03;;;;;;;18.20;50.36;96964.28;2073331;28;20659;-66
2023/01/01 12:55:47;;;;;;;4.68;2.17;;;;;;;18.14;51.08;96962.91;2075861;28;20205;-65
2023/01/01 12:57:13;;;;;;;7.18;2.25;;;;;;;17.91;51.11;96970.59;2081654;28;20199;-65
2023/01/01 12:58:25;;;;;;;9.35;2.88;;;;;;;17.95;50.89;96958.06;2082624;28;20344;-65
2023/01/01 12:59:41;;;;;;;13.02;2.92;;;;;;;17.77;51.55;96970.72;2082520;28;20219;-65
2023/01/01 13:00:53;;;;;;;8.18;3.05;;;;;;;18.10;50.17;96966.72;2074931;28;20201;-65
2023/01/01 13:01:58;;;;;;;5.43;2.05;;;;;;;17.99;50.76;96964.84;2077177;28;20766;-66
2023/01/01 13:03:10;;;;;;;8.15;2.38;;;;;;;17.84;50.97;96963.22;2078938;28;20193;-66
2023/01/01 13:04:17;;;;;;;8.38;2.30;;;;;;;17.95;51.03;96951.00;2078001;28;20212;-66
2023/01/01 13:05:27;;;;;;;8.65;2.25;;;;;;;18.04;50.79;96952.16;2082041;28;20251;-65
2023/01/01 13:06:44;;;;;;;10.68;3.28;;;;;;;18.14;50.86;96954.16;2081925;28;20216;-66
2023/01/01 13:07:50;;;;;;;7.95;2.47;;;;;;;18.31;50.89;96956.44;2073465;28;20205;-66
2023/01/01 13:08:58;;;;;;;7.18;2.20;;;;;;;18.20;50.74;96956.34;2073095;28;20202;-66
2023/01/01 13:10:22;;;;;;;9.05;2.92;;;;;;;18.15;50.35;96950.56;2081844;28;20691;-66
2023/01/01 13:11:26;;;;;;;7.57;2.20;;;;;;;18.19;50.69;96941.44;2080383;28;20781;-66
2023/01/01 13:12:28;;;;;;;6.63;2.25;;;;;;;18.21;50.17;96944.84;2079811;28;20196;-66
2023/01/01 13:13:30;;;;;;;5.78;1.92;;;;;;;18.05;50.45;96945.06;2083506;28;20786;-65
2023/01/01 13:14:45;;;;;;;7.50;2.60;;;;;;;18.14;50.63;96944.41;2081460;28;20422;-65
2023/01/01 13:15:56;;;;;;;17.10;2.70;;;;;;;17.98;50.33;96938.50;2081552;28;20215;-65
2023/01/01 13:16:57;;;;;;;10.02;2.20;;;;;;;17.91;50.72;96940.72;2075306;28;20653;-65
2023/01/01 13:18:01;;;;;;;12.02;2.40;;;;;;;17.82;50.78;96947.47;2067607;28;20294;-65
2023/01/01 13:19:03;;;;;;;8.05;2.53;;;;;;;17.62;52.07;96940.94;2066371;28;20346;-65
2023/01/01 13:20:05;;;;;;;10.32;3.05;;;;;;;17.47;52.46;96942.81;2075215;28;20225;-65
2023/01/01 13:21:21;;;;;;;8.05;2.25;;;;;;;17.25;52.60;96938.97;2081361;28;20624;-65
2023/01/01 13:22:25;;;;;;;11.27;2.78;;;;;;;17.19;52.63;96954.38;2082273;28;20201;-65
2023/01/01 13:23:37;;;;;;;8.68;2.47;;;;;;;17.07;52.76;96943.69;2098146;28;20913;-65
2023/01/01 13:24:38;;;;;;;6.13;1.85;;;;;;;16.94;53.16;96941.03;2092755;28;20279;-65
2023/01/01 13:25:40;;;;;;;8.00;2.20;;;;;;;17.11;52.90;96936.44;2092072;28;20200;-65
2023/01/01 13:26:42;;;;;;;7.38;2.60;;;;;;;17.34;52.64;96939.31;2094271;28;20203;-65
2023/01/01 13:27:55;;;;;;;6.80;2.25;;;;;;;17.20;52.29;96934.97;2094003;28;20193;-65
2023/01/01 13:28:57;;;;;;;5.32;2.03;;;;;;;16.98;52.68;96937.22;2100932;28;20641;-65
2023/01/01 13:29:58;;;;;;;11.20;2.03;;;;;;;17.16;53.09;96941.41;2097680;28;20199;-65
2023/01/01 13:31:00;;;;;;;5.53;2.40;;;;;;;17.27;52.78;96937.09;2096958;28;20250;-65
2023/01/01 13:32:04;;;;;;;9.52;2.35;;;;;;;17.30;52.61;96915.75;2101056;28;20195;-65
2023/01/01 13:33:14;;;;;;;7.45;2.15;;;;;;;17.35;52.82;96935.75;2101345;28;20570;-65
2023/01/01 13:34:37;;;;;;;5.57;2.45;;;;;;;17.22;52.81;96918.09;2102470;28;20676;-65
2023/01/01 13:35:44;;;;;;;6.32;2.60;;;;;;;17.31;53.03;96927.19;2100029;28;20199;-65
2023/01/01 13:36:46;;;;;;;7.40;2.13;;;;;;;17.20;53.16;96927.88;2101820;28;20896;-65
2023/01/01 13:37:47;;;;;;;10.05;1.92;;;;;;;17.29;53.38;96923.78;2101089;28;20195;-65
2023/01/01 13:38:50;;;;;;;8.13;2.45;;;;;;;17.31;53.78;96921.91;2100869;28;20222;-62
2023/01/01 13:40:04;;;;;;;3.97;2.20;;;;;;;16.90;53.75;96912.28;2100500;28;20214;-62
2023/01/01 13:41:26;;;;;;;5.70;2.20;;;;;;;16.81;54.57;96925.13;2100799;28;20227;-62
2023/01/01 13:42:53;;;;;;;5.55;2.20;;;;;;;16.54;55.17;96924.28;2094266;28;20289;-62
2023/01/01 13:44:02;;;;;;;8.90;2.47;;;;;;;16.38;55.47;96921.78;2092315;28;20223;-62
2023/01/01 13:45:25;;;;;;;7.20;2.20;;;;;;;16.38;55.41;96922.63;2097039;28;20204;-62
2023/01/01 13:47:08;;;;;;;6.53;2.55;;;;;;;16.56;55.62;96928.53;2096543;28;20223;-62
2023/01/01 13:48:59;;;;;;;8.52;2.40;;;;;;;16.40;56.00;96933.06;2098732;28;20191;-62
2023/01/01 13:50:18;;;;;;;9.32;2.88;;;;;;;16.76;56.23;96934.28;2094872;28;20211;-61
2023/01/01 13:51:58;;;;;;;6.85;2.60;;;;;;;16.86;55.61;96932.75;2096548;28;20211;-61
2023/01/01 13:53:21;;;;;;;8.43;2.78;;;;;;;16.60;56.22;96924.72;2100986;28;20200;-61
2023/01/01 13:54:42;;;;;;;7.38;2.55;;;;;;;16.76;56.73;96934.28;2100369;28;20406;-61
2023/01/01 13:56:04;;;;;;;8.07;2.70;;;;;;;16.81;56.67;96942.72;2101238;28;20207;-61
2023/01/01 13:57:43;;;;;;;8.57;3.25;;;;;;;16.78;56.72;96940.31;2097552;28;20602;-61
2023/01/01 13:59:06;;;;;;;5.53;1.92;;;;;;;16.69;56.73;96940.91;2099500;28;20657;-61